Time;durP1;ratioP1;P1;durP2;ratioP2;P2;SDS_P1;SDS_P2;PMS_P1;PMS_P2;Temp;Humidity;BMP_temperature;BMP_pressure;BME280_temperature;BME280_humidity;BME280_pressure;Samples;Min_cycle;Max_cycle;Signal;HPM_P1;HPM_P2
2022/01/08 00:01:00;;;;;;;1.38;0.85;;;2.80;99.90;;;;;;5001604;28;20034;-80
2022/01/08 00:03:26;;;;;;;3.17;1.30;;;2.80;99.90;;;;;;5002464;28;20018;-78
2022/01/08 00:05:53;;;;;;;1.88;1.13;;;2.80;99.90;;;;;;5002748;28;20023;-77
2022/01/08 00:08:19;;;;;;;1.92;1.05;;;2.80;99.90;;;;;;4997976;28;20037;-78
2022/01/08 00:10:44;;;;;;;2.83;1.50;;;2.80;99.90;;;;;;5001671;28;20478;-78
2022/01/08 00:13:10;;;;;;;1.75;1.35;;;2.80;99.90;;;;;;5002483;28;20030;-78
2022/01/08 00:15:36;;;;;;;2.05;1.13;;;2.80;99.90;;;;;;5000625;28;20041;-77
2022/01/08 00:18:02;;;;;;;5.03;1.33;;;2.80;99.90;;;;;;4996227;28;20027;-78
2022/01/08 00:20:28;;;;;;;1.88;1.20;;;2.80;99.90;;;;;;5001706;28;20109;-77
2022/01/08 00:22:55;;;;;;;1.70;1.20;;;2.90;99.90;;;;;;5005760;28;20026;-78
2022/01/08 00:25:21;;;;;;;1.23;1.13;;;2.90;99.90;;;;;;4997771;28;20129;-77
2022/01/08 00:27:46;;;;;;;1.80;1.20;;;3.00;99.90;;;;;;4996523;28;20475;-77
2022/01/08 00:30:13;;;;;;;1.95;1.30;;;3.00;99.90;;;;;;5001918;28;20026;-78
2022/01/08 00:32:40;;;;;;;1.50;1.20;;;3.00;99.90;;;;;;5004899;28;20038;-77
2022/01/08 00:35:08;;;;;;;1.85;1.00;;;3.00;99.90;;;;;;5002632;28;20049;-78
2022/01/08 00:37:36;;;;;;;2.15;1.38;;;3.10;99.90;;;;;;5000604;28;20026;-77
2022/01/08 00:40:02;;;;;;;2.47;1.10;;;3.10;99.90;;;;;;5003068;28;20030;-77
2022/01/08 00:42:28;;;;;;;2.67;1.25;;;3.20;99.90;;;;;;5001992;28;20129;-77
2022/01/08 00:44:53;;;;;;;1.25;1.05;;;3.20;99.90;;;;;;5001761;28;20027;-77
2022/01/08 00:47:19;;;;;;;3.75;1.30;;;3.30;99.90;;;;;;4997414;28;20113;-77
2022/01/08 00:49:44;;;;;;;2.00;1.30;;;3.30;99.90;;;;;;4994862;28;20038;-77
2022/01/08 00:52:10;;;;;;;3.60;1.20;;;3.30;99.90;;;;;;4994406;28;20025;-78
2022/01/08 00:54:36;;;;;;;4.13;1.35;;;3.30;99.90;;;;;;4994383;28;20030;-78
2022/01/08 00:57:03;;;;;;;4.38;1.42;;;3.30;99.90;;;;;;4995214;28;20474;-78
2022/01/08 00:59:29;;;;;;;1.75;1.35;;;3.30;99.90;;;;;;4994054;28;20034;-77
2022/01/08 01:01:55;;;;;;;1.73;1.20;;;3.30;99.90;;;;;;4992431;28;20082;-78
2022/01/08 01:04:20;;;;;;;2.00;1.77;;;3.30;99.90;;;;;;4994480;28;20023;-77
2022/01/08 01:06:46;;;;;;;1.83;1.20;;;3.30;99.90;;;;;;4994573;28;20113;-77
2022/01/08 01:09:11;;;;;;;1.83;1.38;;;3.40;99.90;;;;;;4997809;28;20477;-79
2022/01/08 01:11:37;;;;;;;1.48;1.30;;;3.40;99.90;;;;;;4998489;28;20037;-79
2022/01/08 01:14:03;;;;;;;2.00;1.40;;;3.40;99.90;;;;;;4999947;28;20062;-78
2022/01/08 01:16:28;;;;;;;2.70;1.48;;;3.50;99.90;;;;;;5002690;28;20022;-78
2022/01/08 01:18:55;;;;;;;3.50;1.50;;;3.50;99.90;;;;;;4998167;28;20037;-77
2022/01/08 01:21:20;;;;;;;2.10;1.60;;;3.50;99.90;;;;;;4996942;28;20033;-78
2022/01/08 01:23:47;;;;;;;1.48;1.38;;;3.50;99.90;;;;;;5003181;28;20023;-77
2022/01/08 01:26:18;;;;;;;2.33;1.55;;;3.40;99.90;;;;;;5001458;28;20018;-77
2022/01/08 01:28:50;;;;;;;2.08;1.80;;;3.40;99.90;;;;;;5003959;28;20120;-77
2022/01/08 01:47:10;;;;;;;2.95;1.85;;;3.50;99.90;;;;;;4998419;28;20151;-78
2022/01/08 01:49:39;;;;;;;2.28;1.85;;;3.40;99.90;;;;;;5002200;28;20375;-77
2022/01/08 01:52:07;;;;;;;4.43;2.38;;;3.30;99.90;;;;;;5004284;28;20098;-78
2022/01/08 01:54:34;;;;;;;4.00;1.90;;;3.30;99.90;;;;;;5001942;28;20023;-77
2022/01/08 01:57:01;;;;;;;2.22;2.03;;;3.20;99.90;;;;;;4999328;28;20026;-77
2022/01/08 01:59:29;;;;;;;2.10;1.85;;;3.20;99.90;;;;;;4998675;28;20097;-78
2022/01/08 02:01:55;;;;;;;2.65;1.90;;;3.40;99.90;;;;;;4996612;28;20026;-78
2022/01/08 02:04:21;;;;;;;3.83;1.75;;;3.40;99.90;;;;;;5005718;28;20023;-77
2022/01/08 02:06:47;;;;;;;2.67;1.85;;;3.40;99.90;;;;;;5004548;28;20102;-77
2022/01/08 02:09:13;;;;;;;2.00;1.80;;;3.50;99.90;;;;;;5004579;28;20022;-78
2022/01/08 02:12:02;;;;;;;2.30;1.85;;;3.40;99.90;;;;;;4997093;28;20022;-77
2022/01/08 02:14:30;;;;;;;2.67;1.98;;;3.40;99.90;;;;;;4996508;28;20057;-78
2022/01/08 02:16:56;;;;;;;3.88;1.70;;;3.40;99.90;;;;;;4996445;28;20027;-78
2022/01/08 02:19:23;;;;;;;2.95;1.73;;;3.40;99.90;;;;;;5000930;28;20030;-78
2022/01/08 02:21:55;;;;;;;2.67;1.50;;;3.40;99.90;;;;;;4999026;28;20034;-77
2022/01/08 02:24:21;;;;;;;1.98;1.10;;;3.40;99.90;;;;;;4997433;28;20030;-78
2022/01/08 02:26:47;;;;;;;1.75;1.08;;;3.50;99.90;;;;;;5006683;28;20030;-77
2022/01/08 02:29:17;;;;;;;2.35;1.75;;;3.60;99.90;;;;;;5005082;28;20032;-78
2022/01/08 02:31:58;;;;;;;2.30;1.30;;;3.60;99.90;;;;;;4996375;28;20085;-78
2022/01/08 02:34:26;;;;;;;;;;;3.60;99.90;;;;;;4998475;28;20026;-79
2022/01/08 02:36:52;;;;;;;5.20;1.23;;;3.70;99.90;;;;;;4993825;28;19913;-78
2022/01/08 02:39:17;;;;;;;1.48;1.05;;;3.70;99.90;;;;;;4996208;28;20034;-78
2022/01/08 02:41:43;;;;;;;1.70;1.05;;;3.70;99.90;;;;;;4995994;28;20117;-79
2022/01/08 02:44:10;;;;;;;0.93;0.90;;;3.70;99.90;;;;;;4998394;28;20033;-77
2022/01/08 02:46:39;;;;;;;2.08;0.95;;;3.70;99.90;;;;;;5001302;28;20030;-77
2022/01/08 02:49:05;;;;;;;1.58;0.82;;;3.80;99.90;;;;;;5001061;28;20033;-77
2022/01/08 02:51:33;;;;;;;2.47;1.33;;;3.80;99.90;;;;;;4995263;28;20176;-77
2022/01/08 02:53:59;;;;;;;1.85;0.90;;;3.70;99.90;;;;;;4995683;28;20061;-78
2022/01/08 02:56:25;;;;;;;1.50;1.35;;;3.80;99.90;;;;;;4997206;28;20436;-78
2022/01/08 02:58:51;;;;;;;1.95;0.77;;;3.80;99.90;;;;;;4999812;28;20034;-77
2022/01/08 03:01:16;;;;;;;3.60;0.80;;;3.90;99.90;;;;;;5008238;28;20030;-77
2022/01/08 03:03:42;;;;;;;1.63;1.10;;;3.90;99.90;;;;;;5006426;28;20082;-78
2022/01/08 03:06:07;;;;;;;1.90;1.20;;;4.00;99.90;;;;;;4996088;28;20026;-77
2022/01/08 03:08:33;;;;;;;2.83;0.95;;;4.00;99.90;;;;;;4994470;28;20522;-76
2022/01/08 03:10:58;;;;;;;2.88;1.05;;;4.10;99.90;;;;;;4995355;28;20394;-77
2022/01/08 03:13:24;;;;;;;3.47;1.27;;;4.30;99.90;;;;;;4996443;28;20026;-77
2022/01/08 03:15:50;;;;;;;1.55;0.90;;;4.50;99.90;;;;;;4996600;28;20038;-78
2022/01/08 03:18:16;;;;;;;1.50;0.80;;;4.40;99.90;;;;;;4994980;28;20026;-78
2022/01/08 03:20:48;;;;;;;2.17;0.93;;;4.40;99.90;;;;;;5005501;28;20022;-78
2022/01/08 03:23:16;;;;;;;2.90;0.85;;;4.40;99.90;;;;;;5000555;28;20065;-78
2022/01/08 03:25:43;;;;;;;2.13;1.08;;;4.50;99.90;;;;;;4996923;28;20021;-78
2022/01/08 03:28:10;;;;;;;1.30;1.10;;;4.40;99.90;;;;;;4995645;28;20027;-77
2022/01/08 03:30:36;;;;;;;1.17;1.02;;;4.40;99.90;;;;;;5007302;28;20062;-78
2022/01/08 03:33:02;;;;;;;3.15;0.90;;;4.40;99.90;;;;;;5000907;28;20061;-76
2022/01/08 03:35:27;;;;;;;2.15;1.17;;;4.30;99.90;;;;;;5012248;28;20033;-77
2022/01/08 03:37:53;;;;;;;1.00;0.90;;;4.30;99.90;;;;;;5010413;28;20054;-77
2022/01/08 03:40:18;;;;;;;2.45;1.63;;;4.10;99.90;;;;;;4994866;28;20064;-76
2022/01/08 03:42:44;;;;;;;1.50;1.10;;;4.20;99.90;;;;;;4995653;28;20466;-77
2022/01/08 03:45:10;;;;;;;4.43;1.00;;;4.10;99.90;;;;;;4996291;28;20069;-77
2022/01/08 03:50:15;;;;;;;1.65;1.10;;;4.10;99.90;;;;;;4994119;28;20027;-77
2022/01/08 03:52:40;;;;;;;2.47;1.08;;;4.10;99.90;;;;;;4993651;28;20574;-78
2022/01/08 03:55:07;;;;;;;1.67;1.30;;;4.20;99.90;;;;;;4993943;28;20054;-78
2022/01/08 03:57:32;;;;;;;1.77;1.10;;;4.10;99.90;;;;;;4997674;28;20022;-77
2022/01/08 03:59:58;;;;;;;1.50;1.27;;;4.10;99.90;;;;;;4994586;28;20030;-77
2022/01/08 04:02:24;;;;;;;2.08;1.40;;;4.00;99.90;;;;;;4994839;28;20022;-78
2022/01/08 04:04:49;;;;;;;2.78;1.20;;;4.10;99.90;;;;;;4992142;28;20121;-77
2022/01/08 04:07:15;;;;;;;1.30;1.20;;;4.00;99.90;;;;;;4993444;28;20101;-77
2022/01/08 04:09:41;;;;;;;1.88;1.33;;;3.90;99.90;;;;;;4993947;28;20064;-78
2022/01/08 04:12:07;;;;;;;2.53;1.90;;;3.80;99.90;;;;;;4993694;28;20026;-78
2022/01/08 04:14:48;;;;;;;2.40;2.17;;;3.90;99.90;;;;;;4993324;28;20029;-77
2022/01/08 04:17:16;;;;;;;2.65;1.50;;;3.90;99.90;;;;;;4992263;28;20054;-77
2022/01/08 04:19:42;;;;;;;1.33;1.23;;;3.80;99.90;;;;;;4994749;28;20030;-77
2022/01/08 04:22:11;;;;;;;1.92;1.65;;;4.00;99.90;;;;;;4991586;28;20030;-77
2022/01/08 04:24:38;;;;;;;2.47;1.73;;;4.00;99.90;;;;;;4993953;28;20148;-77
2022/01/08 04:27:03;;;;;;;1.80;1.50;;;3.90;99.90;;;;;;4997680;28;20069;-77
2022/01/08 04:29:29;;;;;;;1.40;1.30;;;4.00;99.90;;;;;;4997581;28;20023;-76
2022/01/08 04:31:54;;;;;;;2.13;1.52;;;3.90;99.90;;;;;;4996662;28;20029;-76
2022/01/08 04:34:21;;;;;;;1.90;1.50;;;3.90;99.90;;;;;;4996979;28;20073;-76
2022/01/08 04:36:46;;;;;;;2.00;1.70;;;4.00;99.90;;;;;;4996136;28;20379;-78
2022/01/08 04:39:12;;;;;;;1.48;1.30;;;3.90;99.90;;;;;;4994968;28;20042;-77
2022/01/08 04:41:37;;;;;;;2.08;1.75;;;4.00;99.90;;;;;;4997834;28;20030;-77
2022/01/08 04:44:06;;;;;;;1.58;1.40;;;4.00;99.90;;;;;;4998298;28;20053;-77
2022/01/08 04:46:32;;;;;;;2.63;1.50;;;3.90;99.90;;;;;;4997279;28;20442;-77
2022/01/08 04:48:57;;;;;;;1.70;1.60;;;3.90;99.90;;;;;;4997517;28;20023;-78
2022/01/08 04:51:23;;;;;;;3.20;1.92;;;3.90;99.90;;;;;;4996695;28;20390;-77
2022/01/08 04:53:48;;;;;;;1.40;1.30;;;3.80;99.90;;;;;;5002141;28;20455;-77
2022/01/08 04:56:14;;;;;;;1.60;1.42;;;3.70;99.90;;;;;;5000580;28;20037;-77
2022/01/08 04:58:40;;;;;;;1.42;1.25;;;3.80;99.90;;;;;;4997523;28;20031;-76
2022/01/08 05:01:12;;;;;;;1.63;1.50;;;3.70;99.90;;;;;;4996601;28;20022;-77
2022/01/08 05:03:37;;;;;;;1.63;1.27;;;3.70;99.90;;;;;;4997284;28;20152;-77
2022/01/08 05:06:03;;;;;;;1.92;1.42;;;3.60;99.90;;;;;;4997046;28;20062;-77
2022/01/08 05:08:28;;;;;;;1.90;1.63;;;3.60;99.90;;;;;;4996846;28;20037;-77
2022/01/08 05:10:54;;;;;;;1.92;1.17;;;3.50;99.90;;;;;;4996755;28;20034;-77
2022/01/08 05:13:20;;;;;;;1.40;1.13;;;3.50;99.90;;;;;;4997849;28;20050;-77
2022/01/08 05:15:46;;;;;;;1.90;1.10;;;3.40;99.90;;;;;;4999505;28;20019;-77
2022/01/08 05:18:12;;;;;;;1.30;0.93;;;3.30;99.90;;;;;;4997338;28;20098;-77
2022/01/08 05:20:40;;;;;;;1.52;1.42;;;3.20;99.90;;;;;;4995967;28;20030;-79
2022/01/08 05:23:06;;;;;;;2.33;1.25;;;3.20;99.90;;;;;;4997464;28;20022;-77
2022/01/08 05:25:32;;;;;;;1.40;1.30;;;3.20;99.90;;;;;;4996596;28;20382;-78
2022/01/08 05:27:58;;;;;;;1.25;1.15;;;3.10;99.90;;;;;;4997005;28;20069;-79
2022/01/08 05:30:25;;;;;;;0.88;0.80;;;3.10;99.90;;;;;;4998636;28;20386;-77
2022/01/08 05:32:51;;;;;;;1.92;1.70;;;3.10;99.90;;;;;;5005719;28;20052;-77
2022/01/08 05:35:17;;;;;;;3.15;1.30;;;3.10;99.90;;;;;;5000359;28;20034;-78
2022/01/08 05:37:42;;;;;;;1.08;0.82;;;3.10;99.90;;;;;;5001040;28;20105;-78
2022/01/08 05:40:09;;;;;;;1.33;1.15;;;3.10;99.90;;;;;;5007338;28;20042;-77
2022/01/08 05:42:34;;;;;;;1.27;1.17;;;3.10;99.90;;;;;;5002494;28;20026;-78
2022/01/08 05:45:00;;;;;;;1.05;0.93;;;3.10;99.90;;;;;;4996718;28;20114;-77
2022/01/08 05:47:31;;;;;;;0.82;0.82;;;3.10;99.90;;;;;;4998096;28;20030;-78
2022/01/08 05:49:56;;;;;;;0.98;0.90;;;3.10;99.90;;;;;;5003755;28;20023;-76
2022/01/08 05:52:22;;;;;;;0.80;0.80;;;3.10;99.90;;;;;;5016901;28;20027;-77
2022/01/08 05:54:48;;;;;;;0.68;0.60;;;3.10;99.90;;;;;;5014063;28;20477;-77
2022/01/08 05:57:13;;;;;;;2.05;0.50;;;3.10;99.90;;;;;;5013864;28;20046;-76
2022/01/08 05:59:39;;;;;;;0.47;0.47;;;3.20;99.90;;;;;;5016180;28;20141;-77
2022/01/08 06:02:05;;;;;;;0.40;0.40;;;3.20;99.90;;;;;;5014893;28;20094;-77
2022/01/08 06:04:31;;;;;;;0.30;0.30;;;3.20;99.90;;;;;;5014374;28;20014;-77
2022/01/08 06:06:57;;;;;;;3.45;0.47;;;3.10;99.90;;;;;;5013627;28;20026;-77
2022/01/08 06:09:22;;;;;;;0.70;0.40;;;3.10;99.90;;;;;;5015799;28;20074;-77
2022/01/08 06:11:48;;;;;;;0.55;0.40;;;3.00;99.90;;;;;;5005329;28;20097;-77
2022/01/08 06:14:13;;;;;;;0.60;0.40;;;3.00;99.90;;;;;;4995487;28;20042;-77
2022/01/08 06:16:39;;;;;;;0.65;0.38;;;3.00;99.90;;;;;;4997670;28;20122;-79
2022/01/08 06:19:07;;;;;;;0.43;0.32;;;2.90;99.90;;;;;;5011250;28;20026;-78
2022/01/08 06:21:33;;;;;;;0.82;0.30;;;2.90;99.90;;;;;;4996724;28;20490;-78
2022/01/08 06:23:58;;;;;;;2.75;0.20;;;2.90;99.90;;;;;;4998820;28;20025;-78
2022/01/08 06:26:24;;;;;;;0.35;0.30;;;2.90;99.90;;;;;;4998306;28;20026;-78
2022/01/08 06:28:51;;;;;;;0.50;0.50;;;2.80;99.90;;;;;;4999068;28;20024;-77
2022/01/08 06:31:18;;;;;;;0.38;0.38;;;2.80;99.90;;;;;;5002469;28;20041;-77
2022/01/08 06:33:44;;;;;;;0.40;0.40;;;2.70;99.90;;;;;;5009384;28;20034;-77
2022/01/08 06:36:10;;;;;;;0.30;0.30;;;2.70;99.90;;;;;;5011231;28;20050;-77
2022/01/08 06:38:35;;;;;;;0.30;0.30;;;2.70;99.90;;;;;;5015938;28;20034;-76
2022/01/08 06:41:01;;;;;;;0.43;0.43;;;2.70;99.90;;;;;;5013466;28;20038;-77
2022/01/08 06:43:26;;;;;;;0.30;0.30;;;2.70;99.90;;;;;;5010733;28;20037;-76
2022/01/08 06:45:52;;;;;;;0.57;0.50;;;2.70;99.90;;;;;;5008612;28;20116;-78
2022/01/08 06:48:17;;;;;;;1.60;0.50;;;2.70;99.90;;;;;;5003901;28;20049;-77
2022/01/08 06:50:43;;;;;;;0.40;0.40;;;2.70;99.90;;;;;;4999554;28;20049;-76
2022/01/08 06:53:08;;;;;;;1.10;0.70;;;2.70;99.90;;;;;;4999023;28;20034;-77
2022/01/08 06:55:35;;;;;;;0.35;0.35;;;2.70;99.90;;;;;;4999895;28;20045;-77
2022/01/08 06:58:00;;;;;;;3.08;0.80;;;2.70;99.90;;;;;;4998579;28;20022;-78
2022/01/08 07:00:26;;;;;;;0.30;0.30;;;2.70;99.90;;;;;;4998381;28;20474;-78
2022/01/08 07:02:52;;;;;;;0.70;0.50;;;2.70;99.90;;;;;;5002568;28;20026;-78
2022/01/08 07:05:17;;;;;;;0.82;0.70;;;2.70;99.90;;;;;;4998626;28;20086;-78
2022/01/08 07:07:43;;;;;;;0.50;0.50;;;2.70;99.90;;;;;;4998963;28;20390;-78
2022/01/08 07:10:08;;;;;;;1.15;0.40;;;2.70;99.90;;;;;;4998275;28;20030;-78
2022/01/08 07:12:35;;;;;;;1.13;0.60;;;2.70;99.90;;;;;;4996774;28;20026;-77
2022/01/08 07:15:00;;;;;;;0.88;0.70;;;2.70;99.90;;;;;;5002096;28;20030;-76
2022/01/08 07:17:26;;;;;;;4.78;1.20;;;2.70;99.90;;;;;;4998345;28;20022;-78
2022/01/08 07:19:52;;;;;;;1.50;1.10;;;2.70;99.90;;;;;;4997567;28;20022;-78
2022/01/08 07:22:17;;;;;;;2.30;1.55;;;2.70;99.90;;;;;;4996340;28;20026;-77
2022/01/08 07:24:43;;;;;;;1.02;0.93;;;2.60;99.90;;;;;;4996857;28;20041;-77
2022/01/08 07:27:08;;;;;;;1.35;1.00;;;2.60;99.90;;;;;;5000295;28;20402;-78
2022/01/08 07:29:34;;;;;;;1.33;0.80;;;2.50;99.90;;;;;;4997426;28;20078;-78
2022/01/08 07:31:59;;;;;;;1.33;1.23;;;2.40;99.90;;;;;;4996655;28;20030;-78
2022/01/08 07:34:26;;;;;;;1.80;1.50;;;2.40;99.90;;;;;;4998365;28;20101;-78
2022/01/08 07:36:52;;;;;;;1.33;1.23;;;2.30;99.90;;;;;;4997140;28;20022;-78
2022/01/08 07:39:17;;;;;;;1.48;0.82;;;2.30;99.90;;;;;;4995153;28;20363;-78
2022/01/08 07:41:43;;;;;;;1.52;1.40;;;2.30;99.90;;;;;;5005467;28;20022;-78
2022/01/08 07:44:08;;;;;;;2.10;1.90;;;2.40;99.90;;;;;;4996919;28;20037;-78
2022/01/08 07:46:34;;;;;;;2.95;1.83;;;2.40;99.90;;;;;;4995136;28;20034;-77
2022/01/08 07:49:00;;;;;;;1.52;1.40;;;2.40;99.90;;;;;;4995970;28;20031;-78
2022/01/08 07:51:25;;;;;;;1.52;1.40;;;2.40;99.90;;;;;;4994790;28;20027;-77
2022/01/08 07:53:51;;;;;;;2.08;1.50;;;2.40;99.90;;;;;;4994529;28;20034;-77
2022/01/08 07:56:16;;;;;;;1.60;1.50;;;2.40;99.90;;;;;;4992859;28;20410;-78
2022/01/08 07:58:42;;;;;;;4.00;1.70;;;2.40;99.90;;;;;;4994540;28;20078;-78
2022/01/08 08:01:07;;;;;;;2.78;1.77;;;2.40;99.90;;;;;;4996301;28;20105;-78
2022/01/08 08:03:33;;;;;;;1.70;1.58;;;2.50;99.90;;;;;;4994784;28;20084;-77
2022/01/08 08:05:59;;;;;;;1.92;1.70;;;2.50;99.90;;;;;;4994421;28;20029;-77
2022/01/08 08:08:26;;;;;;;2.22;1.40;;;2.60;99.90;;;;;;4996116;28;20026;-77
2022/01/08 08:10:51;;;;;;;2.90;1.35;;;2.60;99.90;;;;;;4995017;28;20030;-78
2022/01/08 08:13:18;;;;;;;1.70;1.50;;;2.60;99.90;;;;;;4995913;28;20438;-77
2022/01/08 08:15:44;;;;;;;2.92;1.35;;;2.60;99.90;;;;;;4995806;28;20118;-77
2022/01/08 08:18:11;;;;;;;2.33;1.50;;;2.60;99.90;;;;;;5001694;28;20061;-77
2022/01/08 08:20:36;;;;;;;2.58;1.55;;;2.60;99.90;;;;;;5003361;28;20030;-79
2022/01/08 08:23:02;;;;;;;3.50;1.90;;;2.60;99.90;;;;;;5000310;28;20421;-78
2022/01/08 08:25:28;;;;;;;2.53;1.30;;;2.60;99.90;;;;;;4998940;28;20030;-77
2022/01/08 08:27:54;;;;;;;3.15;1.40;;;2.70;99.90;;;;;;4998093;28;20026;-78
2022/01/08 08:30:21;;;;;;;1.50;1.17;;;2.70;99.90;;;;;;4998164;28;20023;-77
2022/01/08 08:32:46;;;;;;;2.53;1.30;;;2.70;99.90;;;;;;5006744;28;20027;-77
2022/01/08 08:35:12;;;;;;;2.38;1.25;;;2.80;99.90;;;;;;5006545;28;20053;-78
2022/01/08 08:37:38;;;;;;;3.05;1.00;;;2.90;99.90;;;;;;5000623;28;20062;-77
2022/01/08 08:40:04;;;;;;;5.10;1.90;;;2.90;99.90;;;;;;4998812;28;20034;-78
2022/01/08 08:42:30;;;;;;;8.63;2.40;;;3.00;99.90;;;;;;5000350;28;20018;-79
2022/01/08 08:44:55;;;;;;;3.53;1.50;;;3.00;99.90;;;;;;4998305;28;20046;-77
2022/01/08 08:47:21;;;;;;;4.00;1.40;;;3.10;99.90;;;;;;5052589;23;20038;-73
2022/01/08 08:49:46;;;;;;;2.90;1.40;;;3.00;99.90;;;;;;5019937;28;20036;-72
2022/01/08 08:52:12;;;;;;;5.05;2.58;;;3.00;99.90;;;;;;5018363;28;20385;-72
2022/01/08 08:54:41;;;;;;;1.85;0.75;;;3.10;99.90;;;;;;5017124;28;20027;-72
2022/01/08 08:57:07;;;;;;;1.10;0.73;;;3.10;99.90;;;;;;5018929;28;20022;-73
2022/01/08 08:59:33;;;;;;;1.70;1.13;;;3.10;99.90;;;;;;5020694;28;20030;-74
2022/01/08 09:01:58;;;;;;;2.40;1.35;;;3.20;99.90;;;;;;5022348;28;20113;-74
2022/01/08 09:04:24;;;;;;;1.92;1.02;;;3.20;99.90;;;;;;5038059;28;20237;-73
2022/01/08 09:06:49;;;;;;;1.63;1.10;;;3.20;99.90;;;;;;5037598;28;20645;-73
2022/01/08 09:09:15;;;;;;;4.43;1.42;;;3.30;99.90;;;;;;5038308;28;20029;-73
2022/01/08 09:11:41;;;;;;;4.40;1.52;;;3.30;99.90;;;;;;5030544;28;20393;-74
2022/01/08 09:14:07;;;;;;;2.03;1.13;;;3.30;99.90;;;;;;5023991;28;20022;-73
2022/01/08 09:16:34;;;;;;;1.80;1.20;;;3.30;99.90;;;;;;5027413;28;20439;-73
2022/01/08 09:19:01;;;;;;;4.13;1.02;;;3.30;99.90;;;;;;5038416;28;20026;-72
2022/01/08 09:21:27;;;;;;;1.17;1.00;;;3.30;99.90;;;;;;5037034;28;20068;-73
2022/01/08 09:23:53;;;;;;;4.47;1.65;;;3.30;99.90;;;;;;5021666;28;20040;-72
2022/01/08 09:26:20;;;;;;;1.60;1.23;;;3.30;99.90;;;;;;5035651;28;20022;-73
2022/01/08 09:28:46;;;;;;;3.38;1.20;;;3.40;99.90;;;;;;5035447;28;20038;-73
2022/01/08 09:31:12;;;;;;;1.52;1.25;;;3.40;99.90;;;;;;5019654;28;20090;-74
2022/01/08 09:33:38;;;;;;;2.58;1.15;;;3.50;99.90;;;;;;5019964;28;20160;-74
2022/01/08 09:36:05;;;;;;;0.93;0.90;;;3.60;99.90;;;;;;5020769;28;20057;-74
2022/01/08 09:38:30;;;;;;;3.22;1.50;;;3.60;99.90;;;;;;5027018;28;20097;-73
2022/01/08 09:40:56;;;;;;;2.42;1.77;;;3.60;99.90;;;;;;5026348;28;20065;-73
2022/01/08 09:43:22;;;;;;;4.68;1.33;;;3.60;99.90;;;;;;5026194;28;20060;-73
2022/01/08 09:45:48;;;;;;;3.92;0.90;;;3.60;99.90;;;;;;5040591;28;20022;-72
2022/01/08 09:48:14;;;;;;;2.75;1.50;;;3.60;99.90;;;;;;5025280;28;20033;-74
2022/01/08 09:50:42;;;;;;;2.67;2.22;;;3.60;99.90;;;;;;5024303;28;20104;-73
2022/01/08 09:53:07;;;;;;;2.80;1.00;;;3.70;99.90;;;;;;5025160;28;20097;-72
2022/01/08 09:55:33;;;;;;;5.03;2.67;;;3.70;99.90;;;;;;5024366;28;20478;-73
2022/01/08 09:57:59;;;;;;;3.25;1.85;;;4.00;99.90;;;;;;5035854;28;20034;-72
2022/01/08 10:00:25;;;;;;;1.15;1.02;;;4.00;99.90;;;;;;5035417;28;20030;-75
2022/01/08 10:02:51;;;;;;;3.35;1.45;;;4.00;99.90;;;;;;5019140;28;20026;-73
2022/01/08 10:05:17;;;;;;;2.80;1.60;;;4.00;99.90;;;;;;5018598;28;20054;-73
2022/01/08 10:07:59;;;;;;;2.50;1.23;;;4.00;99.90;;;;;;5017182;28;20018;-73
2022/01/08 10:10:27;;;;;;;2.03;1.33;;;3.90;99.90;;;;;;5017435;28;20053;-74
2022/01/08 10:13:01;;;;;;;2.28;1.20;;;3.90;99.90;;;;;;5019631;28;20057;-73
2022/01/08 10:18:30;;;;;;;9.00;4.50;;;3.80;99.90;;;;;;5017805;28;20036;-73
2022/01/08 10:20:56;;;;;;;4.40;1.70;;;3.90;99.90;;;;;;5016931;28;20385;-74
2022/01/08 10:23:33;;;;;;;2.90;1.30;;;3.90;99.90;;;;;;5017488;28;20033;-73
2022/01/08 10:26:01;;;;;;;2.83;1.30;;;3.90;99.90;;;;;;5017509;28;20359;-73
2022/01/08 10:28:38;;;;;;;2.85;1.40;;;3.90;99.90;;;;;;5017590;28;20068;-74
2022/01/08 10:31:07;;;;;;;2.25;1.45;;;3.80;99.90;;;;;;5017360;28;20026;-74
2022/01/08 10:33:33;;;;;;;3.40;1.40;;;4.00;99.90;;;;;;5018243;28;20026;-74
2022/01/08 10:35:58;;;;;;;2.88;1.35;;;3.90;99.90;;;;;;5017670;28;20074;-73
2022/01/08 10:38:27;;;;;;;3.00;1.20;;;4.00;99.90;;;;;;5017063;28;20405;-74
2022/01/08 10:40:52;;;;;;;3.40;1.42;;;4.00;99.90;;;;;;5017633;28;20025;-73
2022/01/08 10:43:27;;;;;;;4.18;1.63;;;4.00;99.90;;;;;;5018266;28;20137;-73
2022/01/08 10:45:55;;;;;;;7.90;1.80;;;4.00;99.90;;;;;;5017738;28;20048;-73
2022/01/08 10:48:26;;;;;;;4.95;1.25;;;4.10;99.90;;;;;;5018119;28;20048;-73
2022/01/08 10:50:52;;;;;;;4.05;1.20;;;4.20;99.90;;;;;;5017813;28;20025;-73
2022/01/08 10:53:17;;;;;;;3.75;1.58;;;4.20;99.90;;;;;;5015784;28;20505;-73
2022/01/08 10:55:43;;;;;;;4.88;1.10;;;4.10;99.90;;;;;;5017136;28;20065;-74
2022/01/08 10:58:09;;;;;;;5.07;2.10;;;4.10;99.90;;;;;;5016530;28;20033;-74
2022/01/08 11:00:34;;;;;;;1.85;1.50;;;4.10;99.90;;;;;;5014769;28;20030;-74
2022/01/08 11:03:00;;;;;;;4.15;2.08;;;4.00;99.90;;;;;;5015143;28;20160;-75
2022/01/08 11:05:27;;;;;;;8.18;1.30;;;3.90;99.90;;;;;;5016771;28;20069;-72
2022/01/08 11:08:11;;;;;;;3.97;1.23;;;3.90;99.90;;;;;;5016799;28;20025;-74
2022/01/08 11:10:38;;;;;;;2.97;1.48;;;3.80;99.90;;;;;;5017549;28;20026;-74
2022/01/08 11:13:05;;;;;;;7.00;1.45;;;3.90;99.90;;;;;;5021030;28;20084;-74
2022/01/08 11:15:49;;;;;;;1.83;1.00;;;4.00;99.90;;;;;;5016260;28;20026;-73
2022/01/08 11:18:17;;;;;;;6.50;1.80;;;3.90;99.90;;;;;;5017491;28;20022;-72
2022/01/08 11:20:44;;;;;;;4.03;2.00;;;3.90;99.90;;;;;;5016829;28;20033;-73
2022/01/08 11:23:12;;;;;;;2.58;1.17;;;4.00;99.90;;;;;;5016127;28;20161;-73
2022/01/08 11:25:38;;;;;;;4.65;1.60;;;4.10;99.90;;;;;;5016721;28;20080;-73
2022/01/08 11:28:08;;;;;;;2.92;1.35;;;4.10;99.90;;;;;;5016281;28;20022;-72
2022/01/08 11:30:55;;;;;;;4.00;1.80;;;4.40;99.90;;;;;;5031505;28;20421;-74
2022/01/08 11:33:26;;;;;;;3.60;1.45;;;4.50;99.90;;;;;;5016352;28;20026;-76
2022/01/08 11:35:52;;;;;;;;;;;4.40;99.90;;;;;;4999602;28;20037;-73
2022/01/08 11:38:20;;;;;;;5.07;1.40;;;4.20;99.90;;;;;;5016272;28;20373;-74
2022/01/08 11:40:49;;;;;;;1.88;0.98;;;4.30;99.90;;;;;;5022268;28;20030;-73
2022/01/08 11:43:17;;;;;;;3.78;1.05;;;4.30;99.90;;;;;;5030202;28;20026;-73
2022/01/08 11:45:47;;;;;;;5.05;1.10;;;4.40;99.90;;;;;;5026679;28;20025;-73
2022/01/08 11:48:14;;;;;;;4.10;1.60;;;4.40;99.90;;;;;;5021723;28;20041;-74
2022/01/08 11:50:48;;;;;;;5.30;1.58;;;4.50;99.90;;;;;;5025234;28;20013;-72
2022/01/08 11:53:19;;;;;;;3.08;1.20;;;4.80;99.90;;;;;;5034850;28;20014;-73
2022/01/08 11:55:51;;;;;;;2.83;1.35;;;4.90;99.90;;;;;;5041232;28;20092;-73
2022/01/08 11:58:30;;;;;;;3.92;2.38;;;5.00;99.90;;;;;;5017304;28;20033;-73
2022/01/08 12:00:56;;;;;;;3.28;1.50;;;5.10;99.90;;;;;;5016696;28;20030;-73
2022/01/08 12:03:30;;;;;;;2.70;1.58;;;5.10;99.90;;;;;;5016641;28;20056;-73
2022/01/08 12:05:56;;;;;;;4.38;1.25;;;4.90;99.90;;;;;;5015779;28;20025;-73
2022/01/08 12:08:56;;;;;;;5.22;1.30;;;4.80;99.90;;;;;;5030960;28;20018;-72
2022/01/08 12:11:23;;;;;;;3.28;1.42;;;4.60;99.90;;;;;;5031068;28;20079;-73
2022/01/08 12:13:49;;;;;;;6.32;1.60;;;4.70;99.90;;;;;;5016244;28;20505;-73
2022/01/08 12:16:35;;;;;;;4.15;1.52;;;4.60;99.90;;;;;;5015701;28;20033;-73
2022/01/08 12:19:05;;;;;;;5.65;1.45;;;4.50;99.90;;;;;;5015978;28;20429;-73
2022/01/08 12:21:37;;;;;;;5.60;1.63;;;4.40;99.90;;;;;;5015261;28;20030;-72
2022/01/08 12:24:27;;;;;;;2.33;1.30;;;4.40;99.90;;;;;;5016507;28;20022;-73
2022/01/08 12:26:54;;;;;;;4.20;1.25;;;4.30;99.90;;;;;;5015778;28;20496;-74
2022/01/08 12:29:38;;;;;;;2.95;1.30;;;4.30;99.90;;;;;;5015548;28;20565;-74
2022/01/08 12:32:34;;;;;;;2.47;1.10;;;4.50;99.90;;;;;;5015462;28;20029;-74
2022/01/08 12:35:21;;;;;;;1.98;0.98;;;4.70;99.90;;;;;;5015818;28;20030;-74
2022/01/08 12:37:55;;;;;;;2.80;1.02;;;4.80;99.90;;;;;;5015363;28;20034;-74
2022/01/08 12:40:50;;;;;;;2.20;1.02;;;4.80;99.90;;;;;;5019744;28;20030;-73
2022/01/08 12:43:17;;;;;;;2.70;1.95;;;4.60;99.90;;;;;;5010028;28;20030;-74
2022/01/08 12:45:43;;;;;;;3.30;1.80;;;4.40;99.90;;;;;;5016011;28;20358;-73
2022/01/08 12:48:09;;;;;;;3.80;2.10;;;4.40;99.90;;;;;;5017538;28;20032;-73
2022/01/08 12:50:44;;;;;;;1.33;1.05;;;4.40;99.90;;;;;;5015832;28;20370;-72
2022/01/08 12:53:36;;;;;;;3.50;1.13;;;4.30;99.90;;;;;;5015300;28;20033;-72
2022/01/08 12:56:02;;;;;;;3.92;1.60;;;4.40;99.90;;;;;;5014470;28;20034;-73
2022/01/08 12:58:30;;;;;;;2.15;1.17;;;4.40;99.90;;;;;;5016194;28;20390;-73
2022/01/08 13:00:57;;;;;;;3.78;1.30;;;4.40;99.90;;;;;;5018968;28;20030;-74
2022/01/08 13:03:23;;;;;;;2.78;1.20;;;4.50;99.90;;;;;;5020175;28;20044;-74
2022/01/08 13:05:49;;;;;;;2.05;1.38;;;4.50;99.90;;;;;;5020413;28;20485;-74
2022/01/08 13:08:26;;;;;;;3.65;1.55;;;4.40;99.90;;;;;;5021196;28;20026;-73
2022/01/08 13:11:02;;;;;;;5.25;2.22;;;4.50;99.90;;;;;;5020104;28;20026;-73
2022/01/08 13:13:50;;;;;;;2.75;1.40;;;4.50;99.90;;;;;;5020928;28;20236;-72
2022/01/08 13:16:20;;;;;;;5.32;1.25;;;4.60;99.90;;;;;;5019956;28;20496;-74
2022/01/08 13:19:12;;;;;;;2.13;1.33;;;4.60;99.90;;;;;;5038803;28;20282;-74
2022/01/08 13:21:43;;;;;;;2.30;0.95;;;4.70;99.90;;;;;;5015452;28;20048;-75